createdAt,value
2018-09-10T00:00:05.154Z,15.42
2018-09-10T00:01:32.126Z,15.39
2018-09-10T00:03:00.517Z,15.38
2018-09-10T00:04:26.038Z,15.35
2018-09-10T00:05:52.719Z,15.35
2018-09-10T00:07:21.115Z,15.35
2018-09-10T00:08:48.586Z,15.34
2018-09-10T00:10:16.036Z,15.33
2018-09-10T00:11:42.666Z,15.32
2018-09-10T00:13:10.021Z,15.31
2018-09-10T00:14:36.268Z,15.30
2018-09-10T00:16:03.688Z,15.29
2018-09-10T00:17:32.003Z,15.27
2018-09-10T00:18:59.661Z,15.25
2018-09-10T00:20:25.091Z,15.25
2018-09-10T00:21:52.354Z,15.24
2018-09-10T00:23:19.902Z,15.23
2018-09-10T00:24:47.229Z,15.23
2018-09-10T00:26:15.587Z,15.21
2018-09-10T00:27:41.669Z,15.16
2018-09-10T00:29:09.085Z,15.12
2018-09-10T00:30:37.702Z,15.13
2018-09-10T00:32:05.018Z,15.15
2018-09-10T00:33:30.915Z,15.13
2018-09-10T00:34:59.438Z,15.01
2018-09-10T00:36:26.156Z,14.88
2018-09-10T00:37:53.011Z,14.77
2018-09-10T00:39:20.466Z,14.64
2018-09-10T00:40:46.742Z,14.55
2018-09-10T00:42:14.671Z,14.51
2018-09-10T00:43:41.621Z,14.46
2018-09-10T00:45:07.107Z,14.42
2018-09-10T00:46:35.067Z,14.43
2018-09-10T00:48:02.091Z,14.47
2018-09-10T00:49:27.861Z,14.48
2018-09-10T00:50:55.326Z,14.51
2018-09-10T00:52:22.854Z,14.53
2018-09-10T00:53:50.127Z,14.58
2018-09-10T00:55:16.911Z,14.63
2018-09-10T00:56:44.378Z,14.68
2018-09-10T00:58:12.215Z,14.75
2018-09-10T00:59:38.152Z,14.80
2018-09-10T01:01:06.329Z,14.84
2018-09-10T01:02:33.741Z,14.86
2018-09-10T01:03:59.138Z,14.86
2018-09-10T01:05:26.412Z,14.83
2018-09-10T01:06:55.111Z,14.80
2018-09-10T01:08:21.051Z,14.77
2018-09-10T01:09:49.699Z,14.75
2018-09-10T01:11:17.051Z,14.72
2018-09-10T01:12:44.450Z,14.69
2018-09-10T01:14:10.670Z,14.61
2018-09-10T01:15:39.162Z,14.55
2018-09-10T01:17:04.891Z,14.51
2018-09-10T01:18:33.336Z,14.45
2018-09-10T01:26:16.828Z,14.47
2018-09-10T01:27:43.432Z,14.50
2018-09-10T01:29:10.919Z,14.53
2018-09-10T01:30:35.845Z,14.54
2018-09-10T01:32:04.080Z,14.54
2018-09-10T01:34:38.584Z,14.58
2018-09-10T01:36:05.089Z,14.64
2018-09-10T01:37:31.416Z,14.70
2018-09-10T01:38:58.886Z,14.77
2018-09-10T01:40:26.103Z,14.84
2018-09-10T01:41:52.522Z,14.90
2018-09-10T01:43:20.012Z,14.95
2018-09-10T01:44:46.683Z,14.99
2018-09-10T01:46:14.133Z,15.01
2018-09-10T01:47:41.581Z,15.03
2018-09-10T01:49:08.385Z,15.03
2018-09-10T01:50:35.604Z,15.02
2018-09-10T01:52:02.596Z,15.01
2018-09-10T01:53:30.103Z,14.99
2018-09-10T01:54:58.090Z,14.97
2018-09-10T01:56:25.387Z,14.96
2018-09-10T01:57:51.696Z,14.95
2018-09-10T01:59:19.134Z,14.94
2018-09-10T02:00:47.745Z,14.93
2018-09-10T02:02:14.037Z,14.94
2018-09-10T02:03:42.533Z,14.92
2018-09-10T02:05:08.264Z,14.86
2018-09-10T02:09:31.123Z,14.70
2018-09-10T02:10:56.734Z,14.69
2018-09-10T02:12:24.872Z,14.70
2018-09-10T02:13:52.361Z,14.74
2018-09-10T02:15:18.737Z,14.76
2018-09-10T02:16:45.581Z,14.79
2018-09-10T02:18:13.978Z,14.80
2018-09-10T02:19:41.401Z,14.79
2018-09-10T02:21:07.626Z,14.77
2018-09-10T02:22:35.057Z,14.78
2018-09-10T02:24:03.444Z,14.77
2018-09-10T02:25:29.615Z,14.78
2018-09-10T02:26:58.020Z,14.79
2018-09-10T02:28:24.363Z,14.82
2018-09-10T02:29:51.835Z,14.88
2018-09-10T02:31:19.815Z,14.93
2018-09-10T02:32:46.052Z,14.97
2018-09-10T02:34:13.435Z,15.00
2018-09-10T02:35:41.864Z,15.02
2018-09-10T02:37:08.763Z,15.02
2018-09-10T02:38:36.223Z,15.04
2018-09-10T02:40:02.608Z,15.06
2018-09-10T02:41:30.429Z,15.08
2018-09-10T02:42:57.778Z,15.10
2018-09-10T02:44:24.027Z,15.11
2018-09-10T02:45:52.333Z,15.14
2018-09-10T02:47:18.656Z,15.16
2018-09-10T02:48:46.020Z,15.15
2018-09-10T02:50:14.343Z,15.09
2018-09-10T02:51:41.839Z,15.06
2018-09-10T02:53:08.349Z,15.02
2018-09-10T02:54:36.726Z,14.98
2018-09-10T02:56:04.178Z,14.95
2018-09-10T02:57:29.592Z,14.94
2018-09-10T02:58:57.836Z,14.93
2018-09-10T03:00:24.151Z,14.98
2018-09-10T03:01:51.529Z,15.03
2018-09-10T03:03:18.303Z,15.07
2018-09-10T03:04:45.631Z,15.11
2018-09-10T03:06:14.249Z,15.12
2018-09-10T03:07:40.359Z,15.14
2018-09-10T03:09:08.731Z,15.16
2018-09-10T03:10:34.738Z,15.17
2018-09-10T03:12:03.155Z,15.17
2018-09-10T03:13:29.572Z,15.20
2018-09-10T03:14:56.976Z,15.23
2018-09-10T03:16:24.512Z,15.25
2018-09-10T03:17:50.396Z,15.24
2018-09-10T03:19:17.893Z,15.21
2018-09-10T03:20:45.200Z,15.17
2018-09-10T03:22:12.492Z,15.14
2018-09-10T03:23:39.893Z,15.16
2018-09-10T03:25:07.594Z,15.18
2018-09-10T03:26:34.586Z,15.19
2018-09-10T03:28:01.956Z,15.21
2018-09-10T03:29:28.439Z,15.24
2018-09-10T03:30:56.272Z,15.28
2018-09-10T03:32:23.108Z,15.30
2018-09-10T03:33:49.603Z,15.31
2018-09-10T03:35:18.173Z,15.30
2018-09-10T03:36:45.439Z,15.31
2018-09-10T03:38:12.957Z,15.29
2018-09-10T03:39:39.697Z,15.27
2018-09-10T03:41:06.211Z,15.27
2018-09-10T03:42:34.256Z,15.25
2018-09-10T03:44:01.655Z,15.27
2018-09-10T03:45:28.387Z,15.29
2018-09-10T03:46:55.860Z,15.30
2018-09-10T03:48:23.287Z,15.30
2018-09-10T03:49:49.700Z,15.32
2018-09-10T03:51:18.063Z,15.33
2018-09-10T03:52:45.702Z,15.35
2018-09-10T03:54:11.580Z,15.31
2018-09-10T03:55:39.302Z,15.22
2018-09-10T03:57:05.625Z,15.17
2018-09-10T03:58:33.063Z,15.18
2018-09-10T04:00:00.409Z,15.20
2018-09-10T04:01:28.594Z,15.22
2018-09-10T04:02:54.930Z,15.23
2018-09-10T04:04:22.353Z,15.26
2018-09-10T04:05:50.117Z,15.28
2018-09-10T04:07:16.155Z,15.30
2018-09-10T04:08:43.805Z,15.32
2018-09-10T04:10:10.145Z,15.34
2018-09-10T04:11:38.740Z,15.34
2018-09-10T04:13:05.165Z,15.34
2018-09-10T04:14:32.502Z,15.35
2018-09-10T04:15:59.861Z,15.35
2018-09-10T04:17:28.422Z,15.36
2018-09-10T04:18:54.206Z,15.36
2018-09-10T04:20:22.224Z,15.35
2018-09-10T04:21:47.836Z,15.34
2018-09-10T04:23:16.257Z,15.34
2018-09-10T04:24:42.610Z,15.33
2018-09-10T04:26:10.925Z,15.34
2018-09-10T04:27:37.151Z,15.35
2018-09-10T04:29:05.495Z,15.35
2018-09-10T04:30:32.000Z,15.36
2018-09-10T04:32:00.235Z,15.36
2018-09-10T04:33:27.566Z,15.37
2018-09-10T04:34:53.841Z,15.38
2018-09-10T04:36:21.631Z,15.41
2018-09-10T04:37:49.110Z,15.42
2018-09-10T04:39:15.444Z,15.44
2018-09-10T04:40:43.892Z,15.45
2018-09-10T04:42:10.219Z,15.46
2018-09-10T04:43:38.623Z,15.47
2018-09-10T04:45:05.945Z,15.48
2018-09-10T04:46:33.318Z,15.50
2018-09-10T04:48:00.451Z,15.51
2018-09-10T04:49:26.895Z,15.54
2018-09-10T04:50:55.747Z,15.56
2018-09-10T04:52:23.022Z,15.58
2018-09-10T04:53:49.358Z,15.60
2018-09-10T04:55:16.739Z,15.62
2018-09-10T04:56:43.298Z,15.64
2018-09-10T04:58:11.657Z,15.66
2018-09-10T04:59:38.773Z,15.68
2018-09-10T05:01:06.134Z,15.70
2018-09-10T05:02:33.182Z,15.70
2018-09-10T05:03:59.654Z,15.72
2018-09-10T05:05:25.865Z,15.73
2018-09-10T05:06:54.280Z,15.75
2018-09-10T05:08:21.812Z,15.78
2018-09-10T05:09:49.167Z,15.80
2018-09-10T05:11:15.324Z,15.81
2018-09-10T05:12:42.719Z,15.82
2018-09-10T05:14:09.667Z,15.83
2018-09-10T05:15:37.601Z,15.83
2018-09-10T05:17:04.607Z,15.84
2018-09-10T05:18:30.506Z,15.84
2018-09-10T05:19:59.074Z,15.86
2018-09-10T05:21:25.743Z,15.87
2018-09-10T05:22:51.268Z,15.89
2018-09-10T05:24:18.783Z,15.90
2018-09-10T05:25:47.198Z,15.93
2018-09-10T05:27:14.536Z,15.95
2018-09-10T05:28:41.074Z,15.97
2018-09-10T05:30:08.362Z,15.99
2018-09-10T05:31:36.486Z,16.00
2018-09-10T05:33:02.903Z,16.00
2018-09-10T05:34:30.115Z,16.03
2018-09-10T05:35:57.789Z,16.06
2018-09-10T05:37:25.233Z,16.11
2018-09-10T05:38:51.719Z,16.15
2018-09-10T05:40:20.225Z,16.21
2018-09-10T05:41:47.217Z,16.26
2018-09-10T05:43:12.842Z,16.31
2018-09-10T05:44:41.408Z,16.36
2018-09-10T05:46:08.837Z,16.40
2018-09-10T05:47:36.067Z,16.43
2018-09-10T05:49:02.986Z,16.47
2018-09-10T05:50:29.211Z,16.51
2018-09-10T05:51:56.781Z,16.54
2018-09-10T05:53:25.256Z,16.56
2018-09-10T05:54:51.529Z,16.59
2018-09-10T05:56:19.091Z,16.62
2018-09-10T05:57:46.944Z,16.64
2018-09-10T05:59:14.399Z,16.66
2018-09-10T06:00:41.422Z,16.66
2018-09-10T06:02:08.613Z,16.67
2018-09-10T06:03:36.178Z,16.67
2018-09-10T06:05:02.470Z,16.67
2018-09-10T06:06:30.297Z,16.68
2018-09-10T06:07:55.956Z,16.69
2018-09-10T06:09:24.441Z,16.70
2018-09-10T06:10:50.713Z,16.71
2018-09-10T06:12:19.294Z,16.73
2018-09-10T06:13:45.617Z,16.76
2018-09-10T06:15:13.050Z,16.80
2018-09-10T06:16:40.854Z,16.85
2018-09-10T06:18:09.304Z,16.91
2018-09-10T06:19:35.408Z,16.98
2018-09-10T06:21:02.773Z,17.07
2018-09-10T06:22:31.086Z,17.14
2018-09-10T06:23:58.575Z,17.19
2018-09-10T06:25:25.120Z,17.22
2018-09-10T06:26:52.639Z,17.33
2018-09-10T06:28:19.138Z,17.50
2018-09-10T06:29:45.741Z,17.61
2018-09-10T06:31:12.247Z,17.67
2018-09-10T06:32:38.975Z,17.81
2018-09-10T06:34:06.511Z,17.96
2018-09-10T06:35:33.903Z,18.10
2018-09-10T06:37:02.486Z,18.22
2018-09-10T06:38:29.910Z,18.28
2018-09-10T06:39:57.235Z,18.28
2018-09-10T06:41:23.674Z,18.28
2018-09-10T06:42:51.302Z,18.27
2018-09-10T06:44:24.905Z,18.22
2018-09-10T06:45:45.616Z,18.22
2018-09-10T06:47:14.211Z,18.23
2018-09-10T06:48:40.390Z,18.25
2018-09-10T06:50:07.256Z,18.26
2018-09-10T06:51:35.627Z,18.27
2018-09-10T06:53:03.134Z,18.29
2018-09-10T06:54:28.753Z,18.32
2018-09-10T06:55:57.172Z,18.35
2018-09-10T06:57:23.535Z,18.33
2018-09-10T06:58:50.104Z,18.33
2018-09-10T07:00:17.639Z,18.32
2018-09-10T07:01:44.051Z,18.33
2018-09-10T07:03:10.856Z,18.36
2018-09-10T07:04:37.904Z,18.38
2018-09-10T07:06:06.097Z,18.39
2018-09-10T07:07:33.015Z,18.43
2018-09-10T07:08:59.263Z,18.46
2018-09-10T07:10:27.698Z,18.50
2018-09-10T07:11:55.332Z,18.55
2018-09-10T07:13:22.045Z,18.60
2018-09-10T07:14:49.046Z,18.63
2018-09-10T07:16:15.564Z,18.67
2018-09-10T07:17:42.277Z,18.72
2018-09-10T07:19:10.531Z,18.80
2018-09-10T07:20:37.341Z,18.88
2018-09-10T07:22:04.467Z,18.91
2018-09-10T07:23:30.825Z,18.97
2018-09-10T07:24:57.360Z,19.03
2018-09-10T07:26:25.828Z,19.08
2018-09-10T07:27:53.350Z,19.12
2018-09-10T07:29:19.848Z,19.16
2018-09-10T07:30:47.484Z,19.20
2018-09-10T07:32:13.905Z,19.25
2018-09-10T07:33:41.360Z,19.28
2018-09-10T07:35:09.848Z,19.33
2018-09-10T07:36:35.095Z,19.39
2018-09-10T07:38:02.666Z,19.43
2018-09-10T07:39:29.919Z,19.46
2018-09-10T07:40:57.461Z,19.47
2018-09-10T07:42:25.041Z,19.48
2018-09-10T07:43:52.603Z,19.49
2018-09-10T07:45:19.900Z,19.50
2018-09-10T07:46:47.469Z,19.51
2018-09-10T07:48:15.930Z,19.52
2018-09-10T07:49:42.612Z,19.55
2018-09-10T07:51:10.038Z,19.58
2018-09-10T07:52:36.374Z,19.60
2018-09-10T07:54:04.887Z,19.63
2018-09-10T07:55:30.082Z,19.68
2018-09-10T07:56:58.748Z,19.72
2018-09-10T07:58:26.229Z,19.78
2018-09-10T07:59:52.197Z,19.82
2018-09-10T08:01:21.783Z,19.86
2018-09-10T08:02:47.345Z,19.90
2018-09-10T08:04:13.804Z,19.93
2018-09-10T08:05:41.234Z,19.95
2018-09-10T08:07:08.664Z,19.98
2018-09-10T08:08:36.142Z,20.00
2018-09-10T08:10:04.577Z,20.03
2018-09-10T08:11:31.974Z,20.05
2018-09-10T08:12:59.516Z,20.07
2018-09-10T08:14:27.008Z,20.11
2018-09-10T08:15:54.290Z,20.13
2018-09-10T08:17:20.703Z,20.17
2018-09-10T08:18:49.300Z,20.20
2018-09-10T08:20:15.234Z,20.23
2018-09-10T08:21:42.781Z,20.25
2018-09-10T08:23:10.276Z,20.28
2018-09-10T08:24:37.709Z,20.31
2018-09-10T08:26:06.035Z,20.34
2018-09-10T08:27:32.736Z,20.38
2018-09-10T08:28:58.485Z,20.42
2018-09-10T08:30:27.029Z,20.46
2018-09-10T08:31:53.350Z,20.50
2018-09-10T08:33:20.902Z,20.53
2018-09-10T08:34:48.539Z,20.57
2018-09-10T08:36:17.001Z,20.61
2018-09-10T08:37:44.445Z,20.65
2018-09-10T08:39:11.780Z,20.70
2018-09-10T08:40:38.014Z,20.76
2018-09-10T08:42:06.588Z,20.81
2018-09-10T08:43:33.755Z,20.84
2018-09-10T08:45:01.204Z,20.89
2018-09-10T08:46:28.034Z,20.94
2018-09-10T08:47:55.688Z,20.97
2018-09-10T08:49:23.178Z,21.01
2018-09-10T08:50:49.310Z,21.04
2018-09-10T08:52:16.032Z,21.08
2018-09-10T08:53:44.484Z,21.08
2018-09-10T08:55:11.051Z,21.08
2018-09-10T08:56:38.083Z,21.05
2018-09-10T08:58:06.415Z,21.02
2018-09-10T08:59:32.684Z,20.99
2018-09-10T09:01:01.117Z,20.98
2018-09-10T09:02:27.596Z,21.00
2018-09-10T09:03:56.257Z,21.02
2018-09-10T09:05:23.653Z,21.04
2018-09-10T09:06:51.120Z,21.07
2018-09-10T09:08:17.933Z,21.12
2018-09-10T09:09:44.414Z,21.15
2018-09-10T09:11:11.962Z,21.18
2018-09-10T09:12:40.535Z,21.19
2018-09-10T09:14:07.036Z,21.21
2018-09-10T09:15:35.570Z,21.24
2018-09-10T09:17:02.504Z,21.26
2018-09-10T09:18:28.630Z,21.28
2018-09-10T09:19:56.345Z,21.30
2018-09-10T09:21:24.984Z,21.33
2018-09-10T09:22:51.517Z,21.37
2018-09-10T09:24:19.028Z,21.42
2018-09-10T09:25:46.633Z,21.46
2018-09-10T09:27:14.153Z,21.51
2018-09-10T09:28:40.957Z,21.56
2018-09-10T09:30:08.096Z,21.61
2018-09-10T09:31:35.560Z,21.65
2018-09-10T09:33:04.223Z,21.70
2018-09-10T09:34:30.681Z,21.76
2018-09-10T09:35:59.110Z,21.81
2018-09-10T09:37:25.693Z,21.85
2018-09-10T09:38:53.145Z,21.89
2018-09-10T09:40:19.930Z,21.92
2018-09-10T09:41:47.381Z,21.95
2018-09-10T09:43:14.086Z,22.00
2018-09-10T09:44:42.128Z,22.03
2018-09-10T09:46:09.096Z,22.07
2018-09-10T09:47:36.484Z,22.12
2018-09-10T09:49:02.759Z,22.18
2018-09-10T09:50:31.390Z,22.24
2018-09-10T09:51:58.783Z,22.28
2018-09-10T09:53:25.803Z,22.33
2018-09-10T09:54:53.362Z,22.37
2018-09-10T09:56:19.374Z,22.41
2018-09-10T09:57:46.766Z,22.44
2018-09-10T09:59:15.144Z,22.44
2018-09-10T10:00:41.965Z,22.44
2018-09-10T10:02:08.203Z,22.43
2018-09-10T10:03:38.719Z,22.40
2018-09-10T10:05:02.551Z,22.38
2018-09-10T10:06:29.915Z,22.32
2018-09-10T10:07:57.615Z,22.28
2018-09-10T10:09:25.083Z,22.26
2018-09-10T10:10:52.818Z,22.21
2018-09-10T10:12:21.392Z,22.17
2018-09-10T10:13:46.940Z,22.14
2018-09-10T10:15:15.428Z,22.10
2018-09-10T10:16:41.910Z,22.02
2018-09-10T10:18:08.503Z,21.98
2018-09-10T10:19:37.209Z,21.92
2018-09-10T10:21:04.938Z,21.90
2018-09-10T10:22:31.800Z,21.88
2018-09-10T10:23:58.356Z,21.86
2018-09-10T10:25:25.241Z,21.85
2018-09-10T10:26:53.777Z,21.82
2018-09-10T10:28:21.555Z,21.79
2018-09-10T10:29:47.662Z,21.77
2018-09-10T10:31:16.239Z,21.76
2018-09-10T10:32:42.707Z,21.75
2018-09-10T10:34:10.215Z,21.73
2018-09-10T10:35:37.869Z,21.69
2018-09-10T10:37:05.375Z,21.66
2018-09-10T10:38:33.857Z,21.63
2018-09-10T10:40:00.365Z,21.61
2018-09-10T10:41:27.867Z,21.61
2018-09-10T10:42:55.237Z,21.61
2018-09-10T10:44:22.792Z,21.59
2018-09-10T10:45:50.418Z,21.56
2018-09-10T10:47:18.070Z,21.51
2018-09-10T10:48:45.752Z,21.49
2018-09-10T10:50:12.090Z,21.49
2018-09-10T10:51:38.578Z,21.49
2018-09-10T10:53:06.983Z,21.48
2018-09-10T10:54:34.226Z,21.50
2018-09-10T10:56:01.505Z,21.53
2018-09-10T10:57:28.020Z,21.55
2018-09-10T10:58:55.396Z,21.56
2018-09-10T11:00:23.944Z,21.56
2018-09-10T11:01:51.284Z,21.57
2018-09-10T11:03:17.907Z,21.57
2018-09-10T11:04:45.386Z,21.56
2018-09-10T11:06:13.010Z,21.55
2018-09-10T11:07:40.583Z,21.56
2018-09-10T11:09:07.086Z,21.58
2018-09-10T11:10:34.066Z,21.62
2018-09-10T11:12:00.957Z,21.64
2018-09-10T11:13:29.470Z,21.67
2018-09-10T11:14:57.088Z,21.68
2018-09-10T11:16:24.252Z,21.69
2018-09-10T11:17:51.739Z,21.67
2018-09-10T11:19:18.189Z,21.64
2018-09-10T11:20:46.461Z,21.65
2018-09-10T11:22:14.211Z,21.67
2018-09-10T11:23:43.690Z,21.71
2018-09-10T11:25:07.344Z,21.77
2018-09-10T11:26:37.522Z,21.82
2018-09-10T11:28:02.282Z,21.88
2018-09-10T11:29:29.674Z,21.90
2018-09-10T11:30:57.124Z,21.92
2018-09-10T11:32:23.677Z,21.96
2018-09-10T11:33:51.701Z,21.99
2018-09-10T11:35:19.169Z,22.02
2018-09-10T11:36:45.646Z,22.10
2018-09-10T11:38:12.350Z,22.23
2018-09-10T11:39:40.934Z,22.43
2018-09-10T11:41:08.433Z,22.60
2018-09-10T11:42:35.859Z,22.74
2018-09-10T11:44:02.929Z,22.94
2018-09-10T11:45:28.832Z,23.08
2018-09-10T11:46:57.455Z,23.17
2018-09-10T11:48:24.430Z,23.29
2018-09-10T11:49:50.126Z,23.41
2018-09-10T11:51:17.544Z,23.49
2018-09-10T11:52:46.242Z,23.55
2018-09-10T11:54:13.549Z,23.60
2018-09-10T11:55:40.726Z,23.63
2018-09-10T11:57:07.149Z,23.64
2018-09-10T11:58:34.244Z,23.61
2018-09-10T12:00:02.684Z,23.61
2018-09-10T12:01:29.306Z,23.54
2018-09-10T12:02:57.697Z,23.51
2018-09-10T12:04:23.472Z,23.46
2018-09-10T12:05:51.038Z,23.38
2018-09-10T12:07:18.838Z,23.37
2018-09-10T12:08:47.396Z,23.32
2018-09-10T12:10:14.014Z,23.27
2018-09-10T12:11:41.589Z,23.21
2018-09-10T12:13:10.185Z,23.15
2018-09-10T12:14:37.561Z,23.14
2018-09-10T12:16:04.753Z,23.22
2018-09-10T12:17:30.832Z,23.29
2018-09-10T12:18:57.675Z,23.27
2018-09-10T12:20:25.078Z,23.28
2018-09-10T12:21:51.966Z,23.31
2018-09-10T12:23:20.561Z,23.30
2018-09-10T12:24:47.141Z,23.33
2018-09-10T12:26:14.079Z,23.33
2018-09-10T12:27:41.856Z,23.37
2018-09-10T12:29:09.155Z,23.39
2018-09-10T12:30:37.654Z,23.39
2018-09-10T12:32:05.167Z,23.36
2018-09-10T12:33:32.211Z,23.38
2018-09-10T12:34:57.978Z,23.44
2018-09-10T12:36:24.884Z,23.56
2018-09-10T12:37:53.504Z,23.77
2018-09-10T12:39:20.425Z,24.02
2018-09-10T12:40:47.846Z,24.24
2018-09-10T12:42:14.470Z,24.48
2018-09-10T12:43:42.290Z,24.64
2018-09-10T12:45:09.767Z,24.75
2018-09-10T12:46:36.139Z,25.03
2018-09-10T12:48:03.799Z,25.29
2018-09-10T12:49:32.227Z,25.46
2018-09-10T12:50:59.323Z,25.58
2018-09-10T12:52:25.750Z,25.74
2018-09-10T12:53:54.245Z,25.83
2018-09-10T12:55:20.855Z,25.88
2018-09-10T12:56:48.599Z,25.85
2018-09-10T12:58:15.129Z,25.92
2018-09-10T12:59:43.713Z,25.81
2018-09-10T13:01:11.372Z,25.72
2018-09-10T13:02:38.782Z,25.68
2018-09-10T13:04:05.441Z,25.74
2018-09-10T13:05:32.989Z,25.65
2018-09-10T13:07:01.252Z,25.61
2018-09-10T13:08:28.033Z,25.48
2018-09-10T13:09:54.696Z,25.39
2018-09-10T13:11:22.383Z,25.27
2018-09-10T13:12:50.938Z,25.04
2018-09-10T13:14:18.591Z,24.96
2018-09-10T13:15:46.232Z,24.83
2018-09-10T13:17:12.870Z,24.82
2018-09-10T13:18:40.450Z,24.84
2018-09-10T13:20:07.873Z,24.86
2018-09-10T13:21:35.512Z,24.88
2018-09-10T13:23:01.868Z,24.86
2018-09-10T13:24:29.312Z,24.91
2018-09-10T13:25:57.989Z,24.96
2018-09-10T13:27:24.797Z,24.96
2018-09-10T13:28:51.485Z,24.99
2018-09-10T13:30:19.550Z,25.09
2018-09-10T13:31:45.919Z,25.25
2018-09-10T13:33:13.625Z,25.29
2018-09-10T13:34:40.238Z,25.21
2018-09-10T13:36:08.726Z,25.13
2018-09-10T13:37:35.750Z,25.09
2018-09-10T13:39:02.238Z,25.12
2018-09-10T13:40:30.785Z,25.22
2018-09-10T13:41:58.408Z,25.33
2018-09-10T13:43:24.013Z,25.33
2018-09-10T13:44:51.966Z,25.31
2018-09-10T13:46:18.393Z,25.39
2018-09-10T13:47:46.043Z,25.39
2018-09-10T13:49:14.643Z,25.39
2018-09-10T13:50:42.209Z,25.49
2018-09-10T13:52:08.684Z,25.51
2018-09-10T13:53:36.232Z,25.57
2018-09-10T13:55:03.888Z,25.60
2018-09-10T13:56:32.426Z,25.60
2018-09-10T13:57:58.724Z,25.56
2018-09-10T13:59:27.441Z,25.53
2018-09-10T14:00:53.960Z,25.48
2018-09-10T14:02:22.481Z,25.35
2018-09-10T14:03:50.308Z,25.26
2018-09-10T14:05:15.865Z,25.00
2018-09-10T14:06:43.526Z,24.91
2018-09-10T14:08:09.993Z,24.90
2018-09-10T14:09:37.566Z,24.90
2018-09-10T14:11:06.179Z,24.92
2018-09-10T14:12:33.579Z,24.92
2018-09-10T14:14:00.144Z,24.95
2018-09-10T14:15:27.705Z,24.98
2018-09-10T14:16:55.237Z,24.97
2018-09-10T14:18:22.821Z,24.92
2018-09-10T14:19:50.252Z,24.88
2018-09-10T14:21:18.043Z,24.80
2018-09-10T14:22:46.529Z,24.71
2018-09-10T14:24:13.118Z,24.72
2018-09-10T14:25:41.037Z,24.76
2018-09-10T14:27:08.231Z,24.79
2018-09-10T14:28:35.631Z,24.82
2018-09-10T14:30:03.232Z,24.83
2018-09-10T14:31:31.546Z,24.78
2018-09-10T14:32:59.218Z,24.73
2018-09-10T14:34:25.532Z,24.62
2018-09-10T14:35:52.721Z,24.54
2018-09-10T14:37:19.177Z,24.52
2018-09-10T14:38:47.174Z,24.45
2018-09-10T14:40:13.702Z,24.38
2018-09-10T14:41:41.227Z,24.29
2018-09-10T14:43:08.707Z,24.18
2018-09-10T14:44:35.776Z,24.14
2018-09-10T14:46:03.252Z,24.10
2018-09-10T14:47:30.439Z,23.93
2018-09-10T14:48:57.943Z,23.80
2018-09-10T14:50:25.676Z,23.77
2018-09-10T14:51:52.229Z,23.72
2018-09-10T14:53:21.039Z,23.61
2018-09-10T14:54:48.596Z,23.60
2018-09-10T14:56:15.318Z,23.59
2018-09-10T14:57:41.761Z,23.60
2018-09-10T14:59:09.221Z,23.58
2018-09-10T15:00:37.599Z,23.57
2018-09-10T15:02:03.715Z,23.54
2018-09-10T15:03:31.134Z,23.47
2018-09-10T15:04:59.762Z,23.43
2018-09-10T15:06:26.254Z,23.37
2018-09-10T15:07:54.767Z,23.29
2018-09-10T15:09:21.331Z,23.23
2018-09-10T15:10:48.611Z,23.18
2018-09-10T15:12:16.311Z,23.16
2018-09-10T15:13:44.798Z,23.13
2018-09-10T15:15:10.558Z,23.08
2018-09-10T15:16:38.642Z,23.01
2018-09-10T15:18:04.692Z,23.00
2018-09-10T15:19:32.256Z,22.99
2018-09-10T15:20:59.909Z,23.02
2018-09-10T15:22:28.413Z,23.02
2018-09-10T15:23:55.212Z,23.00
2018-09-10T15:25:22.838Z,22.99
2018-09-10T15:26:51.158Z,22.97
2018-09-10T15:28:17.255Z,22.94
2018-09-10T15:29:45.786Z,22.94
2018-09-10T15:31:13.245Z,22.95
2018-09-10T15:32:40.801Z,22.95
2018-09-10T15:34:07.239Z,22.96
2018-09-10T15:35:34.163Z,22.98
2018-09-10T15:37:02.470Z,22.99
2018-09-10T15:38:28.763Z,22.98
2018-09-10T15:39:56.132Z,22.97
2018-09-10T15:41:23.801Z,22.94
2018-09-10T15:42:51.373Z,22.92
2018-09-10T15:44:17.864Z,22.91
2018-09-10T15:45:45.252Z,22.87
2018-09-10T15:47:12.994Z,22.83
2018-09-10T15:48:40.742Z,22.81
2018-09-10T15:50:07.138Z,22.79
2018-09-10T15:51:34.600Z,22.78
2018-09-10T15:53:01.990Z,22.75
2018-09-10T15:54:29.637Z,22.71
2018-09-10T15:55:57.374Z,22.67
2018-09-10T15:57:24.319Z,22.66
2018-09-10T15:58:52.063Z,22.66
2018-09-10T16:00:18.237Z,22.67
2018-09-10T16:01:45.880Z,22.68
2018-09-10T16:03:13.758Z,22.69
2018-09-10T16:04:40.199Z,22.66
2018-09-10T16:06:08.946Z,22.62
2018-09-10T16:07:35.544Z,22.57
2018-09-10T16:09:03.880Z,22.54
2018-09-10T16:10:29.483Z,22.52
2018-09-10T16:11:56.936Z,22.51
2018-09-10T16:13:25.522Z,22.50
2018-09-10T16:14:52.010Z,22.49
2018-09-10T16:16:20.471Z,22.44
2018-09-10T16:17:46.983Z,22.41
2018-09-10T16:20:41.784Z,22.33
2018-09-10T16:22:10.186Z,22.32
2018-09-10T16:23:36.888Z,22.31
2018-09-10T16:25:04.845Z,22.31
2018-09-10T16:26:31.172Z,22.28
2018-09-10T16:27:58.876Z,22.27
2018-09-10T16:29:26.455Z,22.23
2018-09-10T16:30:54.884Z,22.19
2018-09-10T16:32:21.340Z,22.18
2018-09-10T16:33:49.878Z,22.17
2018-09-10T16:35:16.377Z,22.15
2018-09-10T16:36:44.066Z,22.13
2018-09-10T16:38:10.581Z,22.12
2018-09-10T16:39:39.249Z,22.11
2018-09-10T16:41:06.649Z,22.09
2018-09-10T16:42:32.587Z,22.07
2018-09-10T16:43:59.956Z,22.04
2018-09-10T16:45:27.614Z,22.00
2018-09-10T16:46:55.404Z,21.99
2018-09-10T16:48:23.069Z,21.96
2018-09-10T16:49:50.418Z,21.92
2018-09-10T16:52:45.344Z,21.89
2018-09-10T16:54:12.042Z,21.88
2018-09-10T16:55:40.422Z,21.87
2018-09-10T16:57:06.903Z,21.85
2018-09-10T16:58:35.481Z,21.80
2018-09-10T17:00:02.755Z,21.78
2018-09-10T17:01:29.357Z,21.77
2018-09-10T17:02:56.841Z,21.75
2018-09-10T17:04:25.488Z,21.74
2018-09-10T17:05:52.819Z,21.72
2018-09-10T17:07:20.336Z,21.66
2018-09-10T17:08:46.836Z,21.63
2018-09-10T17:10:15.290Z,21.62
2018-09-10T17:11:42.769Z,21.60
2018-09-10T17:13:09.259Z,21.57
2018-09-10T17:14:36.635Z,21.53
2018-09-10T17:16:04.129Z,21.51
2018-09-10T17:17:31.616Z,21.49
2018-09-10T17:19:00.236Z,21.45
2018-09-10T17:20:26.656Z,21.43
2018-09-10T17:21:54.247Z,21.43
2018-09-10T17:23:27.895Z,21.39
2018-09-10T17:24:49.299Z,21.37
2018-09-10T17:26:16.627Z,21.35
2018-09-10T17:27:44.204Z,21.33
2018-09-10T17:29:11.707Z,21.29
2018-09-10T17:30:39.392Z,21.26
2018-09-10T17:32:06.768Z,21.23
2018-09-10T17:33:34.951Z,21.19
2018-09-10T17:35:00.536Z,21.15
2018-09-10T17:36:27.897Z,21.09
2018-09-10T17:37:55.317Z,21.04
2018-09-10T17:39:23.498Z,21.00
2018-09-10T17:40:46.699Z,20.96
2018-09-10T17:43:41.575Z,20.93
2018-09-10T17:46:35.801Z,20.87
2018-09-10T17:48:03.281Z,20.83
2018-09-10T17:49:30.870Z,20.77
2018-09-10T17:50:56.543Z,20.74
2018-09-10T17:52:25.129Z,20.71
2018-09-10T17:53:51.732Z,20.70
2018-09-10T17:55:17.801Z,20.71
2018-09-10T17:56:45.450Z,20.68
2018-09-10T17:58:12.932Z,20.66
2018-09-10T17:59:41.428Z,20.64
2018-09-10T18:01:07.000Z,20.61
2018-09-10T18:02:33.967Z,20.53
2018-09-10T18:04:00.033Z,20.51
2018-09-10T18:05:27.411Z,20.48
2018-09-10T18:06:56.100Z,20.46
2018-09-10T18:08:23.502Z,20.41
2018-09-10T18:09:50.999Z,20.39
2018-09-10T18:11:16.241Z,20.35
2018-09-10T18:12:43.563Z,20.32
2018-09-10T18:14:10.044Z,20.28
2018-09-10T18:15:38.292Z,20.23
2018-09-10T18:17:03.861Z,20.22
2018-09-10T18:18:32.412Z,20.22
2018-09-10T18:19:58.746Z,20.20
2018-09-10T18:21:29.999Z,20.20
2018-09-10T18:22:51.455Z,20.19
2018-09-10T18:24:17.983Z,20.18
2018-09-10T18:27:12.805Z,20.14
2018-09-10T18:28:39.388Z,20.11
2018-09-10T18:30:06.914Z,20.06
2018-09-10T18:31:34.288Z,20.01
2018-09-10T18:33:02.293Z,19.98
2018-09-10T18:34:28.534Z,19.93
2018-09-10T18:35:56.304Z,19.90
2018-09-10T18:37:24.879Z,19.87
2018-09-10T18:38:49.926Z,19.85
2018-09-10T18:40:18.508Z,19.83
2018-09-10T18:41:45.023Z,19.82
2018-09-10T18:43:13.637Z,19.81
2018-09-10T18:44:41.194Z,19.80
2018-09-10T18:46:08.742Z,19.79
2018-09-10T18:47:33.616Z,19.76
2018-09-10T18:49:07.290Z,19.72
2018-09-10T18:50:28.032Z,19.69
2018-09-10T18:51:54.544Z,19.68
2018-09-10T18:53:21.992Z,19.68
2018-09-10T18:54:49.656Z,19.70
2018-09-10T18:56:16.965Z,19.72
2018-09-10T18:57:44.155Z,19.72
2018-09-10T18:59:11.631Z,19.72
2018-09-10T19:00:38.003Z,19.71